createdAt,value
2022-10-09T00:01:18.937Z,1.65
2022-10-09T00:03:47.823Z,3.25
2022-10-09T00:06:19.213Z,2.03
2022-10-09T00:08:46.052Z,1.75
2022-10-09T00:11:22.840Z,1.80
2022-10-09T00:13:50.326Z,1.83
2022-10-09T00:16:18.268Z,1.92
2022-10-09T00:18:45.160Z,1.52
2022-10-09T00:21:32.998Z,2.35
2022-10-09T00:24:02.617Z,1.50
2022-10-09T00:26:29.641Z,1.67
2022-10-09T00:28:56.594Z,1.60
2022-10-09T00:31:25.259Z,1.80
2022-10-09T00:33:55.346Z,1.20
2022-10-09T00:36:24.543Z,1.67
2022-10-09T00:38:51.781Z,1.55
2022-10-09T00:41:25.145Z,1.48
2022-10-09T00:43:57.832Z,1.80
2022-10-09T00:49:02.785Z,1.10
2022-10-09T00:51:31.331Z,2.05
2022-10-09T00:53:59.127Z,1.92
2022-10-09T00:56:26.228Z,2.65
2022-10-09T00:58:56.306Z,1.67
2022-10-09T01:01:23.209Z,1.33
2022-10-09T01:03:50.023Z,1.83
2022-10-09T01:06:51.596Z,1.65
2022-10-09T01:09:23.472Z,1.42
2022-10-09T01:12:00.831Z,2.45
2022-10-09T01:14:37.584Z,2.00
2022-10-09T01:17:24.051Z,1.40
2022-10-09T01:20:11.014Z,1.48
2022-10-09T01:22:58.834Z,1.15
2022-10-09T01:25:34.308Z,2.13
2022-10-09T01:28:04.109Z,1.30
2022-10-09T01:30:32.516Z,1.63
2022-10-09T01:32:59.375Z,2.13
2022-10-09T01:35:26.960Z,1.83
2022-10-09T01:37:54.760Z,1.13
2022-10-09T01:40:23.210Z,1.92
2022-10-09T01:42:50.460Z,2.75
2022-10-09T01:45:17.440Z,1.98
2022-10-09T01:47:44.365Z,2.00
2022-10-09T01:50:29.499Z,1.75
2022-10-09T01:52:59.793Z,1.67
2022-10-09T01:55:32.604Z,2.22
2022-10-09T01:58:25.000Z,1.40
2022-10-09T02:00:54.171Z,1.50
2022-10-09T02:03:22.752Z,1.20
2022-10-09T02:05:51.238Z,1.52
2022-10-09T02:08:20.631Z,1.10
2022-10-09T02:10:50.605Z,2.50
2022-10-09T02:13:18.319Z,1.70
2022-10-09T02:15:56.045Z,1.73
2022-10-09T02:18:39.899Z,1.77
2022-10-09T02:21:15.996Z,1.77
2022-10-09T02:23:44.246Z,1.10
2022-10-09T02:26:12.588Z,1.63
2022-10-09T02:28:45.130Z,1.40
2022-10-09T02:31:25.611Z,0.90
2022-10-09T02:34:04.300Z,1.00
2022-10-09T02:36:31.982Z,1.25
2022-10-09T02:38:58.902Z,1.33
2022-10-09T02:41:26.583Z,1.40
2022-10-09T02:43:53.715Z,2.05
2022-10-09T02:46:20.931Z,1.67
2022-10-09T02:48:47.727Z,1.25
2022-10-09T02:51:14.739Z,1.63
2022-10-09T02:53:41.633Z,1.55
2022-10-09T02:56:08.658Z,1.45
2022-10-09T02:58:36.640Z,1.08
2022-10-09T03:01:04.966Z,2.30
2022-10-09T03:03:32.386Z,1.35
2022-10-09T03:06:09.615Z,1.25
2022-10-09T03:08:41.250Z,1.27
2022-10-09T03:11:08.448Z,1.23
2022-10-09T03:13:35.169Z,1.58
2022-10-09T03:16:12.993Z,2.30
2022-10-09T03:18:40.628Z,1.25
2022-10-09T03:21:09.338Z,1.30
2022-10-09T03:23:37.376Z,1.58
2022-10-09T03:26:07.035Z,1.10
2022-10-09T03:28:36.504Z,1.05
2022-10-09T03:31:04.103Z,1.20
2022-10-09T03:33:31.092Z,1.50
2022-10-09T03:35:57.882Z,1.95
2022-10-09T03:38:24.872Z,1.15
2022-10-09T03:40:52.647Z,1.75
2022-10-09T03:43:19.942Z,1.38
2022-10-09T03:45:47.009Z,1.98
2022-10-09T03:48:14.424Z,1.38
2022-10-09T03:50:42.158Z,1.90
2022-10-09T03:53:10.665Z,1.02
2022-10-09T03:55:37.471Z,0.75
2022-10-09T03:58:04.288Z,1.25
2022-10-09T04:00:31.461Z,1.02
2022-10-09T04:02:58.430Z,1.63
2022-10-09T04:05:25.548Z,1.70
2022-10-09T04:07:52.390Z,1.00
2022-10-09T04:10:19.459Z,1.98
2022-10-09T04:12:46.305Z,1.35
2022-10-09T04:15:13.269Z,1.67
2022-10-09T04:17:40.113Z,1.50
2022-10-09T04:20:07.349Z,1.42
2022-10-09T04:22:34.133Z,2.13
2022-10-09T04:25:00.872Z,2.58
2022-10-09T04:27:27.617Z,1.35
2022-10-09T04:29:54.348Z,1.77
2022-10-09T04:32:21.191Z,1.08
2022-10-09T04:34:47.905Z,2.88
2022-10-09T04:37:14.642Z,1.08
2022-10-09T04:39:41.369Z,2.15
2022-10-09T04:42:08.512Z,1.20
2022-10-09T04:44:35.309Z,1.00
2022-10-09T04:47:02.113Z,1.40
2022-10-09T04:49:28.861Z,0.82
2022-10-09T04:51:55.675Z,1.27
2022-10-09T04:54:22.530Z,1.58
2022-10-09T04:56:49.287Z,1.05
2022-10-09T04:59:16.058Z,1.48
2022-10-09T05:01:42.956Z,1.20
2022-10-09T05:04:09.743Z,1.92
2022-10-09T05:06:36.487Z,1.02
2022-10-09T05:09:03.532Z,1.27
2022-10-09T05:11:30.252Z,1.33
2022-10-09T05:13:58.708Z,1.30
2022-10-09T05:16:28.242Z,0.70
2022-10-09T05:18:57.784Z,0.93
2022-10-09T05:21:25.092Z,2.15
2022-10-09T05:23:54.541Z,0.93
2022-10-09T05:26:22.873Z,0.70
2022-10-09T05:28:50.304Z,1.15
2022-10-09T05:31:25.821Z,1.05
2022-10-09T05:33:53.266Z,1.58
2022-10-09T05:36:20.599Z,0.90
2022-10-09T05:38:47.655Z,1.65
2022-10-09T05:41:17.152Z,1.35
2022-10-09T05:43:45.888Z,1.15
2022-10-09T05:46:14.088Z,1.40
2022-10-09T05:48:43.512Z,1.45
2022-10-09T05:51:16.163Z,1.83
2022-10-09T05:56:21.410Z,0.98
2022-10-09T05:58:56.422Z,1.50
2022-10-09T06:01:26.078Z,1.48
2022-10-09T06:03:55.577Z,1.17
2022-10-09T06:06:25.715Z,1.10
2022-10-09T06:08:53.314Z,2.25
2022-10-09T06:11:29.205Z,1.58
2022-10-09T06:13:56.643Z,1.00
2022-10-09T06:16:26.516Z,1.10
2022-10-09T06:18:54.684Z,1.48
2022-10-09T06:21:21.933Z,1.15
2022-10-09T06:23:53.508Z,1.27
2022-10-09T06:26:22.045Z,1.50
2022-10-09T06:28:49.619Z,1.33
2022-10-09T06:31:22.429Z,1.35
2022-10-09T06:33:51.304Z,1.40
2022-10-09T06:36:20.283Z,1.38
2022-10-09T06:38:47.854Z,1.92
2022-10-09T06:41:19.805Z,1.20
2022-10-09T06:43:54.705Z,1.40
2022-10-09T06:46:23.993Z,1.70
2022-10-09T06:48:51.149Z,1.33
2022-10-09T06:51:21.117Z,1.65
2022-10-09T06:53:52.762Z,1.33
2022-10-09T06:56:28.129Z,1.60
2022-10-09T06:58:55.064Z,1.35
2022-10-09T07:01:24.798Z,1.48
2022-10-09T07:03:57.715Z,1.33
2022-10-09T07:06:29.832Z,1.35
2022-10-09T07:09:02.333Z,1.15
2022-10-09T07:11:32.504Z,0.80
2022-10-09T07:14:01.218Z,1.17
2022-10-09T07:16:30.667Z,1.10
2022-10-09T07:19:01.632Z,1.13
2022-10-09T07:21:28.375Z,1.35
2022-10-09T07:23:55.174Z,0.82
2022-10-09T07:26:24.411Z,1.52
2022-10-09T07:28:51.817Z,1.38
2022-10-09T07:31:18.930Z,0.98
2022-10-09T07:33:50.440Z,1.63
2022-10-09T07:36:18.493Z,1.55
2022-10-09T07:38:50.565Z,1.38
2022-10-09T07:41:17.351Z,0.93
2022-10-09T07:43:44.195Z,1.05
2022-10-09T07:46:16.877Z,1.15
2022-10-09T07:51:17.152Z,1.00
2022-10-09T07:53:44.816Z,1.33
2022-10-09T07:56:35.495Z,1.67
2022-10-09T07:59:04.729Z,1.85
2022-10-09T08:01:33.506Z,1.50
2022-10-09T08:04:01.118Z,1.85
2022-10-09T08:06:28.987Z,1.23
2022-10-09T08:08:57.907Z,1.25
2022-10-09T08:11:27.202Z,1.05
2022-10-09T08:13:54.699Z,0.88
2022-10-09T08:16:24.309Z,1.38
2022-10-09T08:19:00.762Z,0.95
2022-10-09T08:21:28.632Z,0.82
2022-10-09T08:23:57.585Z,1.30
2022-10-09T08:26:25.356Z,1.27
2022-10-09T08:28:57.853Z,1.20
2022-10-09T08:31:25.201Z,1.15
2022-10-09T08:33:53.943Z,1.58
2022-10-09T08:36:21.355Z,0.98
2022-10-09T08:38:48.668Z,1.33
2022-10-09T08:41:35.020Z,0.68
2022-10-09T08:44:10.405Z,1.08
2022-10-09T08:46:59.444Z,1.00
2022-10-09T08:49:38.128Z,1.38
2022-10-09T08:52:23.173Z,0.73
2022-10-09T08:54:50.841Z,1.40
2022-10-09T08:57:18.069Z,1.13
2022-10-09T08:59:45.210Z,1.13
2022-10-09T09:02:14.691Z,1.35
2022-10-09T09:05:13.363Z,1.27
2022-10-09T09:07:55.479Z,1.15
2022-10-09T09:10:33.843Z,0.80
2022-10-09T09:13:15.753Z,1.38
2022-10-09T09:16:10.622Z,1.10
2022-10-09T09:18:52.561Z,1.45
2022-10-09T09:21:34.498Z,0.80
2022-10-09T09:24:05.318Z,1.67
2022-10-09T09:26:32.052Z,1.60
2022-10-09T09:29:04.582Z,1.23
2022-10-09T09:31:37.226Z,1.13
2022-10-09T09:34:09.841Z,1.30
2022-10-09T09:36:48.854Z,3.55
2022-10-09T09:42:17.068Z,1.17
2022-10-09T09:44:57.769Z,1.35
2022-10-09T09:47:49.351Z,1.38
2022-10-09T09:50:42.182Z,0.88
2022-10-09T09:53:15.520Z,1.50
2022-10-09T09:55:42.877Z,0.93
2022-10-09T09:58:17.109Z,1.10
2022-10-09T10:00:57.860Z,1.10
2022-10-09T10:03:25.537Z,0.95
2022-10-09T10:05:52.348Z,2.38
2022-10-09T10:08:28.750Z,1.40
2022-10-09T10:11:06.846Z,1.48
2022-10-09T10:13:35.231Z,1.10
2022-10-09T10:16:02.696Z,1.30
2022-10-09T10:18:36.478Z,1.10
2022-10-09T10:21:15.440Z,1.23
2022-10-09T10:23:51.973Z,1.40
2022-10-09T10:26:30.392Z,1.20
2022-10-09T10:29:29.327Z,1.33
2022-10-09T10:32:05.351Z,1.75
2022-10-09T10:34:48.365Z,2.53
2022-10-09T10:37:15.071Z,0.95
2022-10-09T10:39:54.083Z,0.90
2022-10-09T10:42:59.388Z,1.10
2022-10-09T10:45:44.299Z,1.20
2022-10-09T10:48:26.005Z,1.98
2022-10-09T10:51:04.361Z,1.90
2022-10-09T10:53:49.184Z,1.35
2022-10-09T10:56:38.783Z,2.35
2022-10-09T10:59:34.862Z,1.35
2022-10-09T11:02:11.050Z,1.45
2022-10-09T11:04:50.336Z,1.05
2022-10-09T11:07:37.921Z,0.95
2022-10-09T11:10:27.689Z,1.33
2022-10-09T11:13:04.298Z,1.10
2022-10-09T11:15:50.782Z,1.15
2022-10-09T11:18:31.019Z,1.38
2022-10-09T11:21:18.266Z,0.85
2022-10-09T11:23:59.910Z,1.25
2022-10-09T11:27:05.292Z,1.95
2022-10-09T11:29:52.458Z,1.33
2022-10-09T11:32:25.212Z,1.27
2022-10-09T11:35:03.871Z,1.13
2022-10-09T11:37:36.032Z,1.50
2022-10-09T11:40:21.849Z,1.15
2022-10-09T11:43:14.212Z,2.33
2022-10-09T11:45:50.118Z,1.63
2022-10-09T11:48:29.462Z,1.30
2022-10-09T11:50:59.339Z,1.10
2022-10-09T11:53:28.564Z,1.98
2022-10-09T11:56:03.900Z,1.98
2022-10-09T11:58:30.824Z,1.88
2022-10-09T12:01:11.522Z,1.38
2022-10-09T12:03:40.441Z,1.48
2022-10-09T12:06:16.425Z,1.60
2022-10-09T12:09:07.462Z,1.10
2022-10-09T12:11:34.950Z,1.30
2022-10-09T12:14:08.127Z,1.13
2022-10-09T12:16:42.750Z,1.83
2022-10-09T12:19:18.376Z,1.27
2022-10-09T12:22:07.975Z,1.77
2022-10-09T12:24:39.211Z,0.93
2022-10-09T12:27:08.018Z,1.38
2022-10-09T12:29:43.413Z,0.80
2022-10-09T12:32:23.227Z,1.27
2022-10-09T12:34:51.977Z,1.33
2022-10-09T12:37:21.816Z,1.75
2022-10-09T12:39:49.908Z,1.50
2022-10-09T12:42:21.547Z,1.58
2022-10-09T12:44:50.982Z,1.70
2022-10-09T12:47:30.276Z,1.40
2022-10-09T12:50:25.393Z,0.90
2022-10-09T12:52:52.453Z,1.05
2022-10-09T12:55:31.367Z,0.85
2022-10-09T12:58:03.494Z,0.98
2022-10-09T13:00:34.702Z,0.90
2022-10-09T13:03:01.693Z,0.77
2022-10-09T13:05:42.549Z,0.80
2022-10-09T13:08:33.878Z,1.10
2022-10-09T13:11:24.320Z,1.15
2022-10-09T13:13:52.358Z,1.00
2022-10-09T13:16:19.544Z,1.02
2022-10-09T13:19:03.068Z,1.23
2022-10-09T13:21:36.195Z,1.00
2022-10-09T13:24:10.839Z,1.42
2022-10-09T13:26:39.060Z,0.65
2022-10-09T13:29:07.434Z,1.27
2022-10-09T13:31:36.657Z,0.90
2022-10-09T13:34:14.145Z,1.33
2022-10-09T13:36:41.108Z,0.95
2022-10-09T13:39:14.079Z,0.90
2022-10-09T13:41:42.129Z,0.80
2022-10-09T13:44:09.134Z,1.00
2022-10-09T13:46:35.940Z,1.02
2022-10-09T13:49:02.807Z,1.45
2022-10-09T13:51:31.900Z,1.98
2022-10-09T13:53:58.757Z,1.15
2022-10-09T13:56:26.256Z,1.70
2022-10-09T13:58:53.457Z,1.17
2022-10-09T14:01:20.274Z,1.05
2022-10-09T14:03:47.176Z,1.65
2022-10-09T14:06:13.965Z,1.25
2022-10-09T14:08:40.873Z,0.85
2022-10-09T14:11:07.738Z,0.60
2022-10-09T14:13:34.566Z,1.20
2022-10-09T14:16:05.735Z,1.30
2022-10-09T14:18:32.734Z,1.38
2022-10-09T14:20:59.441Z,0.63
2022-10-09T14:23:26.209Z,0.93
2022-10-09T14:25:53.017Z,1.23
2022-10-09T14:28:19.977Z,1.35
2022-10-09T14:30:46.953Z,1.40
2022-10-09T14:33:13.844Z,1.40
2022-10-09T14:35:40.746Z,1.38
2022-10-09T14:38:07.630Z,1.33
2022-10-09T14:40:34.487Z,1.38
2022-10-09T14:43:01.271Z,1.38
2022-10-09T14:45:29.127Z,1.52
2022-10-09T14:47:56.839Z,1.05
2022-10-09T14:50:23.775Z,1.15
2022-10-09T14:52:50.987Z,1.45
2022-10-09T14:55:18.209Z,1.30
2022-10-09T14:57:45.124Z,0.93
2022-10-09T15:00:12.677Z,0.82
2022-10-09T15:02:39.495Z,0.82
2022-10-09T15:05:06.718Z,0.90
2022-10-09T19:07:45.002Z,2.57
2022-10-09T19:10:11.792Z,2.92
2022-10-09T19:12:39.718Z,2.08
2022-10-09T19:15:11.747Z,2.72
2022-10-09T19:17:39.573Z,3.40
2022-10-09T19:20:06.820Z,3.75
2022-10-09T19:22:33.577Z,3.50
2022-10-09T19:25:01.222Z,3.65
2022-10-09T19:27:28.270Z,3.92
2022-10-09T19:29:55.072Z,3.50
2022-10-09T19:32:23.792Z,3.72
2022-10-09T19:34:50.905Z,3.63
2022-10-09T19:37:18.506Z,3.83
2022-10-09T19:39:48.535Z,3.42
2022-10-09T19:42:16.216Z,4.00
2022-10-09T19:44:46.872Z,3.17
2022-10-09T19:47:15.551Z,2.60
2022-10-09T19:49:42.614Z,3.47
2022-10-09T19:52:09.488Z,3.78
2022-10-09T19:54:36.404Z,3.60
2022-10-09T19:57:03.224Z,4.40
2022-10-09T19:59:31.188Z,3.20
2022-10-09T20:01:57.988Z,3.70
2022-10-09T20:04:24.902Z,2.40
2022-10-09T20:06:51.839Z,2.42
2022-10-09T20:09:20.675Z,2.67
2022-10-09T20:11:47.641Z,3.25
2022-10-09T20:14:14.488Z,2.95
2022-10-09T20:16:41.325Z,2.63
2022-10-09T20:19:08.062Z,2.30
2022-10-09T20:21:35.235Z,3.38
2022-10-09T20:24:02.256Z,2.85
2022-10-09T20:26:31.483Z,2.88
2022-10-09T20:28:58.307Z,2.42
2022-10-09T20:31:26.678Z,3.47
2022-10-09T20:33:54.749Z,4.50
2022-10-09T20:36:27.649Z,4.47
2022-10-09T20:38:56.483Z,3.30
2022-10-09T20:41:23.987Z,3.67
2022-10-09T20:43:52.951Z,3.50
2022-10-09T20:46:23.936Z,3.13
2022-10-09T20:48:51.891Z,3.17
2022-10-09T20:51:20.299Z,2.67
2022-10-09T20:53:50.872Z,2.75
2022-10-09T20:56:17.661Z,3.17
2022-10-09T20:58:44.391Z,2.40
2022-10-09T21:01:12.483Z,1.90
2022-10-09T21:03:39.385Z,2.00
2022-10-09T21:06:08.470Z,1.95
2022-10-09T21:08:35.754Z,1.40
2022-10-09T21:11:06.387Z,2.10
2022-10-09T21:13:34.254Z,1.75
2022-10-09T21:16:04.252Z,2.28
2022-10-09T21:18:30.957Z,2.67
2022-10-09T21:20:57.715Z,2.13
2022-10-09T21:23:24.529Z,2.40
2022-10-09T21:25:53.171Z,2.55
2022-10-09T21:28:21.167Z,2.03
2022-10-09T21:30:48.457Z,3.30
2022-10-09T21:33:16.554Z,2.55
2022-10-09T21:35:46.468Z,2.50
2022-10-09T21:38:19.509Z,2.78
2022-10-09T21:40:47.373Z,1.65
2022-10-09T21:43:14.109Z,2.42
2022-10-09T21:45:41.354Z,2.67
2022-10-09T21:48:08.505Z,4.15
2022-10-09T21:50:36.621Z,2.65
2022-10-09T21:53:04.320Z,2.53
2022-10-09T21:55:31.188Z,2.85
2022-10-09T21:57:57.986Z,2.00
2022-10-09T22:00:24.769Z,2.22
2022-10-09T22:02:51.891Z,2.10
2022-10-09T22:05:18.838Z,1.75
2022-10-09T22:07:45.588Z,1.73
2022-10-09T22:10:12.606Z,2.05
2022-10-09T22:12:39.380Z,1.73
2022-10-09T22:15:06.638Z,2.10
2022-10-09T22:17:33.399Z,2.70
2022-10-09T22:20:00.111Z,2.53
2022-10-09T22:22:26.936Z,2.38
2022-10-09T22:24:53.800Z,1.95
2022-10-09T22:27:20.657Z,1.70
2022-10-09T22:29:47.371Z,1.60
2022-10-09T22:32:14.176Z,2.67
2022-10-09T22:34:40.916Z,2.03
2022-10-09T22:37:07.636Z,2.58
2022-10-09T22:39:34.409Z,2.38
2022-10-09T22:42:01.127Z,2.38
2022-10-09T22:44:27.919Z,2.03
2022-10-09T22:46:54.621Z,1.85
2022-10-09T22:49:21.298Z,2.38
2022-10-09T22:51:48.016Z,1.77
2022-10-09T22:54:14.793Z,1.80
2022-10-09T22:56:44.715Z,1.50
2022-10-09T22:59:15.743Z,1.73
2022-10-09T23:01:44.744Z,1.95
2022-10-09T23:04:13.227Z,2.40
2022-10-09T23:06:41.343Z,2.35
2022-10-09T23:09:10.883Z,2.08
2022-10-09T23:11:37.675Z,1.73
2022-10-09T23:14:05.249Z,2.28
2022-10-09T23:16:32.947Z,2.35
2022-10-09T23:19:05.471Z,1.58
2022-10-09T23:21:33.948Z,1.55
2022-10-09T23:24:01.030Z,1.60
2022-10-09T23:26:30.278Z,1.52
2022-10-09T23:29:02.947Z,1.98
2022-10-09T23:33:57.705Z,1.65
2022-10-09T23:36:27.109Z,1.63
2022-10-09T23:38:55.100Z,2.45
2022-10-09T23:41:24.303Z,1.50
2022-10-09T23:43:52.039Z,1.88
2022-10-09T23:46:22.411Z,1.30
2022-10-09T23:48:50.568Z,1.23
2022-10-09T23:51:19.028Z,1.95
2022-10-09T23:53:46.140Z,2.53
2022-10-09T23:56:24.902Z,2.05
2022-10-09T23:58:52.867Z,1.08
